createdAt,value
2018-08-16T00:03:33.581Z,99.90
2018-08-16T00:06:01.392Z,99.90
2018-08-16T00:08:29.118Z,99.90
2018-08-16T00:13:43.739Z,99.90
2018-08-16T00:16:11.466Z,99.90
2018-08-16T00:18:39.221Z,99.90
2018-08-16T00:21:07.037Z,99.90
2018-08-16T00:26:02.419Z,99.90
2018-08-16T00:28:30.193Z,99.90
2018-08-16T00:30:57.930Z,99.90
2018-08-16T00:33:39.835Z,99.90
2018-08-16T00:36:07.621Z,99.90
2018-08-16T00:38:35.391Z,99.90
2018-08-16T00:41:03.241Z,99.90
2018-08-16T00:43:31.038Z,99.90
2018-08-16T00:45:58.794Z,99.90
2018-08-16T00:48:26.568Z,99.90
2018-08-16T00:50:54.333Z,99.90
2018-08-16T00:53:22.165Z,99.90
2018-08-16T00:55:50.038Z,99.90
2018-08-16T00:58:42.903Z,99.90
2018-08-16T01:01:10.656Z,99.90
2018-08-16T01:03:38.437Z,99.90
2018-08-16T01:06:06.201Z,99.90
2018-08-16T01:08:33.956Z,99.90
2018-08-16T01:11:01.799Z,99.90
2018-08-16T01:13:29.568Z,99.90
2018-08-16T01:18:24.973Z,99.90
2018-08-16T01:30:44.495Z,99.90
2018-08-16T01:33:12.268Z,99.90
2018-08-16T01:35:40.050Z,99.90
2018-08-16T01:38:07.855Z,99.90
2018-08-16T01:40:35.600Z,99.90
2018-08-16T01:43:03.447Z,99.90
2018-08-16T01:45:57.401Z,99.90
2018-08-16T01:48:26.220Z,99.90
2018-08-16T01:50:53.973Z,99.90
2018-08-16T01:53:21.719Z,99.90
2018-08-16T01:55:49.464Z,99.90
2018-08-16T01:58:17.234Z,99.90
2018-08-16T02:00:45.024Z,99.90
2018-08-16T02:03:12.804Z,99.90
2018-08-16T02:05:40.661Z,99.90
2018-08-16T02:08:08.520Z,99.90
2018-08-16T02:10:36.257Z,99.90
2018-08-16T02:13:04.077Z,99.90
2018-08-16T02:15:31.844Z,99.90
2018-08-16T02:17:59.646Z,99.90
2018-08-16T02:20:27.424Z,99.90
2018-08-16T02:22:55.208Z,99.90
2018-08-16T02:25:23.033Z,99.90
2018-08-16T02:27:50.860Z,99.90
2018-08-16T02:30:18.671Z,99.90
2018-08-16T02:32:46.433Z,99.90
2018-08-16T02:35:15.223Z,99.90
2018-08-16T02:42:38.445Z,99.90
2018-08-16T02:45:06.328Z,99.90
2018-08-16T02:50:02.771Z,99.90
2018-08-16T02:52:30.487Z,99.90
2018-08-16T02:54:58.306Z,99.90
2018-08-16T02:57:26.036Z,99.90
2018-08-16T02:59:53.774Z,99.90
2018-08-16T03:02:21.581Z,99.90
2018-08-16T03:04:49.375Z,99.90
2018-08-16T03:07:17.142Z,99.90
2018-08-16T03:09:44.861Z,99.90
2018-08-16T03:12:12.671Z,99.90
2018-08-16T03:14:40.980Z,99.90
2018-08-16T03:17:08.775Z,99.90
2018-08-16T03:19:36.521Z,99.90
2018-08-16T03:22:04.352Z,99.90
2018-08-16T03:24:32.090Z,99.90
2018-08-16T03:27:00.845Z,99.90
2018-08-16T03:29:28.628Z,99.90
2018-08-16T03:31:56.358Z,99.90
2018-08-16T03:34:24.191Z,99.90
2018-08-16T03:36:51.963Z,99.90
2018-08-16T03:39:19.715Z,99.90
2018-08-16T03:41:47.461Z,99.90
2018-08-16T03:44:15.255Z,99.90
2018-08-16T03:46:43.066Z,99.90
2018-08-16T03:49:10.827Z,99.90
2018-08-16T03:51:38.540Z,99.90
2018-08-16T03:54:06.321Z,99.90
2018-08-16T03:56:34.070Z,99.90
2018-08-16T03:59:01.866Z,99.90
2018-08-16T04:01:29.627Z,99.90
2018-08-16T04:03:57.490Z,99.90
2018-08-16T04:06:25.241Z,99.90
2018-08-16T04:08:53.075Z,99.90
2018-08-16T04:11:20.858Z,99.90
2018-08-16T04:13:48.636Z,99.90
2018-08-16T04:16:16.474Z,99.90
2018-08-16T04:18:44.200Z,99.90
2018-08-16T04:21:11.964Z,99.90
2018-08-16T04:23:39.752Z,99.90
2018-08-16T04:26:07.560Z,99.90
2018-08-16T04:28:35.337Z,99.90
2018-08-16T04:31:03.135Z,99.90
2018-08-16T04:33:30.983Z,99.90
2018-08-16T04:35:58.750Z,99.90
2018-08-16T04:38:26.469Z,99.90
2018-08-16T04:40:54.167Z,99.90
2018-08-16T04:43:21.931Z,99.90
2018-08-16T04:45:49.643Z,99.90
2018-08-16T04:48:17.382Z,99.90
2018-08-16T04:50:45.108Z,99.90
2018-08-16T04:53:12.833Z,99.90
2018-08-16T04:55:40.588Z,99.90
2018-08-16T04:58:08.373Z,99.90
2018-08-16T05:00:36.142Z,99.90
2018-08-16T05:03:03.961Z,99.90
2018-08-16T05:05:32.713Z,99.90
2018-08-16T05:08:00.451Z,99.90
2018-08-16T05:10:28.160Z,99.90
2018-08-16T05:12:55.931Z,99.90
2018-08-16T05:15:23.738Z,99.90
2018-08-16T05:17:51.487Z,99.90
2018-08-16T05:20:19.255Z,99.90
2018-08-16T05:22:47.053Z,99.90
2018-08-16T05:25:14.996Z,99.90
2018-08-16T05:27:42.704Z,99.90
2018-08-16T05:30:11.648Z,99.90
2018-08-16T05:32:39.645Z,99.90
2018-08-16T05:35:07.574Z,99.90
2018-08-16T05:37:36.172Z,99.90
2018-08-16T05:40:05.147Z,99.90
2018-08-16T05:42:32.929Z,99.90
2018-08-16T05:45:00.706Z,99.90
2018-08-16T05:47:28.492Z,99.90
2018-08-16T05:49:56.224Z,99.90
2018-08-16T05:52:24.045Z,99.90
2018-08-16T05:54:51.825Z,99.90
2018-08-16T05:57:19.731Z,99.90
2018-08-16T05:59:47.490Z,99.90
2018-08-16T06:02:15.311Z,99.90
2018-08-16T06:04:43.078Z,99.90
2018-08-16T06:07:10.900Z,99.90
2018-08-16T06:09:38.656Z,99.90
2018-08-16T06:12:06.487Z,99.90
2018-08-16T06:14:34.258Z,99.90
2018-08-16T06:17:02.023Z,99.90
2018-08-16T06:19:30.840Z,99.90
2018-08-16T06:21:58.687Z,99.90
2018-08-16T06:24:28.418Z,99.90
2018-08-16T06:26:56.365Z,99.90
2018-08-16T06:29:24.193Z,99.90
2018-08-16T06:31:51.952Z,99.90
2018-08-16T06:34:19.728Z,99.90
2018-08-16T06:36:47.513Z,99.90
2018-08-16T06:39:15.305Z,99.90
2018-08-16T06:41:43.213Z,99.90
2018-08-16T06:44:12.046Z,99.90
2018-08-16T06:46:39.845Z,99.90
2018-08-16T06:49:07.967Z,99.90
2018-08-16T06:51:35.866Z,99.90
2018-08-16T06:54:03.711Z,99.90
2018-08-16T06:56:31.547Z,99.90
2018-08-16T06:58:59.323Z,99.90
2018-08-16T07:01:27.193Z,99.90
2018-08-16T07:03:55.079Z,99.90
2018-08-16T07:06:23.004Z,99.90
2018-08-16T07:08:50.938Z,99.90
2018-08-16T07:11:19.754Z,99.90
2018-08-16T07:13:47.634Z,99.90
2018-08-16T07:16:15.525Z,99.90
2018-08-16T07:18:43.441Z,99.90
2018-08-16T07:21:13.368Z,99.90
2018-08-16T07:23:41.119Z,99.90
2018-08-16T07:26:09.006Z,99.90
2018-08-16T07:28:36.760Z,99.90
2018-08-16T07:31:04.578Z,99.90
2018-08-16T07:33:32.408Z,99.90
2018-08-16T07:36:00.515Z,99.90
2018-08-16T07:38:28.878Z,99.90
2018-08-16T07:40:56.772Z,99.90
2018-08-16T07:43:24.560Z,99.90
2018-08-16T07:45:52.423Z,99.90
2018-08-16T07:48:20.252Z,99.90
2018-08-16T07:50:48.201Z,99.90
2018-08-16T07:53:16.182Z,99.90
2018-08-16T07:55:44.037Z,99.90
2018-08-16T07:58:11.866Z,99.90
2018-08-16T08:00:39.680Z,99.90
2018-08-16T08:03:07.578Z,99.90
2018-08-16T08:05:35.397Z,99.90
2018-08-16T08:08:03.260Z,99.90
2018-08-16T08:10:31.143Z,99.90
2018-08-16T08:12:58.967Z,99.90
2018-08-16T08:15:26.861Z,99.90
2018-08-16T08:17:54.622Z,99.90
2018-08-16T08:20:22.438Z,99.90
2018-08-16T08:22:50.231Z,99.90
2018-08-16T08:25:18.219Z,99.90
2018-08-16T08:27:46.034Z,99.90
2018-08-16T08:30:15.790Z,99.90
2018-08-16T08:32:43.649Z,99.90
2018-08-16T08:35:11.487Z,99.90
2018-08-16T08:37:51.406Z,99.90
2018-08-16T08:40:19.263Z,99.90
2018-08-16T08:42:47.033Z,99.90
2018-08-16T08:45:14.911Z,99.90
2018-08-16T08:47:48.470Z,99.90
2018-08-16T08:50:16.394Z,99.90
2018-08-16T08:52:44.154Z,99.90
2018-08-16T08:55:23.289Z,99.90
2018-08-16T08:58:02.261Z,99.90
2018-08-16T09:00:30.045Z,99.90
2018-08-16T09:02:57.920Z,99.90
2018-08-16T09:05:27.198Z,99.90
2018-08-16T09:07:55.034Z,99.90
2018-08-16T09:10:47.965Z,99.90
2018-08-16T09:15:38.820Z,99.90
2018-08-16T09:18:06.605Z,99.90
2018-08-16T09:20:35.447Z,99.90
2018-08-16T09:23:03.261Z,99.90
2018-08-16T09:25:31.017Z,99.90
2018-08-16T09:27:58.804Z,99.90
2018-08-16T09:30:39.778Z,99.90
2018-08-16T09:33:18.771Z,99.90
2018-08-16T09:35:46.654Z,99.90
2018-08-16T09:38:14.440Z,99.90
2018-08-16T09:40:42.278Z,99.90
2018-08-16T09:43:10.104Z,99.90
2018-08-16T09:47:56.160Z,99.90
2018-08-16T09:50:23.976Z,99.90
2018-08-16T09:52:51.746Z,99.90
2018-08-16T09:55:19.569Z,99.90
2018-08-16T09:57:47.365Z,99.90
2018-08-16T10:00:16.462Z,99.90
2018-08-16T10:02:44.476Z,99.90
2018-08-16T10:05:12.235Z,99.90
2018-08-16T10:07:39.987Z,99.90
2018-08-16T10:10:07.851Z,99.90
2018-08-16T10:12:35.671Z,99.90
2018-08-16T10:15:06.757Z,99.90
2018-08-16T10:17:34.536Z,99.90
2018-08-16T10:20:02.611Z,99.90
2018-08-16T10:22:30.421Z,99.90
2018-08-16T10:24:58.397Z,99.90
2018-08-16T10:27:26.220Z,99.90
2018-08-16T10:29:54.177Z,99.90
2018-08-16T10:32:21.955Z,99.90
2018-08-16T10:34:49.851Z,99.90
2018-08-16T10:37:17.830Z,99.90
2018-08-16T10:39:45.576Z,99.90
2018-08-16T10:42:13.510Z,99.90
2018-08-16T10:44:41.283Z,99.90
2018-08-16T10:47:09.278Z,99.90
2018-08-16T10:49:37.050Z,99.90
2018-08-16T10:52:06.089Z,99.90
2018-08-16T10:54:33.855Z,99.90
2018-08-16T10:57:01.655Z,99.90
2018-08-16T10:59:29.467Z,99.90
2018-08-16T11:01:57.398Z,99.90
2018-08-16T11:04:25.304Z,99.90
2018-08-16T11:06:54.162Z,99.90
2018-08-16T11:09:22.025Z,99.90
2018-08-16T11:11:50.003Z,99.90
2018-08-16T11:14:28.916Z,99.90
2018-08-16T11:16:56.844Z,98.00
2018-08-16T11:19:24.892Z,97.00
2018-08-16T11:21:52.725Z,97.10
2018-08-16T11:24:20.817Z,98.10
2018-08-16T11:26:48.645Z,96.50
2018-08-16T11:29:16.708Z,95.50
2018-08-16T11:31:44.460Z,95.50
2018-08-16T11:34:13.492Z,96.80
2018-08-16T11:36:41.339Z,94.70
2018-08-16T11:39:09.154Z,94.80
2018-08-16T11:41:37.146Z,95.90
2018-08-16T11:44:04.990Z,95.40
2018-08-16T11:46:32.962Z,95.00
2018-08-16T11:49:00.792Z,96.00
2018-08-16T11:51:28.630Z,95.20
2018-08-16T11:53:56.393Z,94.80
2018-08-16T11:56:25.349Z,93.10
2018-08-16T11:58:53.220Z,92.50
2018-08-16T12:01:21.217Z,93.00
2018-08-16T12:03:49.008Z,91.00
2018-08-16T12:06:16.982Z,91.90
2018-08-16T12:08:44.791Z,92.00
2018-08-16T12:11:12.893Z,91.20
2018-08-16T12:13:40.697Z,92.30
2018-08-16T12:16:08.598Z,92.30
2018-08-16T12:18:36.485Z,90.40
2018-08-16T12:21:04.324Z,91.40
2018-08-16T12:23:33.230Z,89.80
2018-08-16T12:26:01.030Z,90.20
2018-08-16T12:28:28.923Z,90.70
2018-08-16T12:30:56.684Z,90.30
2018-08-16T12:33:24.487Z,87.60
2018-08-16T12:35:52.362Z,87.10
2018-08-16T12:38:20.157Z,90.70
2018-08-16T12:40:50.109Z,91.20
2018-08-16T12:43:16.761Z,89.60
2018-08-16T12:45:44.511Z,92.00
2018-08-16T12:48:12.258Z,91.10
2018-08-16T12:50:40.046Z,90.70
2018-08-16T12:53:07.992Z,91.20
2018-08-16T12:55:35.749Z,88.90
2018-08-16T12:58:03.851Z,91.00
2018-08-16T13:00:31.694Z,90.20
2018-08-16T13:02:59.837Z,90.70
2018-08-16T13:05:27.612Z,90.00
2018-08-16T13:07:55.502Z,90.70
2018-08-16T13:10:23.227Z,88.60
2018-08-16T13:12:57.110Z,83.30
2018-08-16T13:15:24.917Z,81.00
2018-08-16T13:17:52.728Z,82.90
2018-08-16T13:20:20.545Z,87.90
2018-08-16T13:22:48.654Z,86.70
2018-08-16T13:25:16.618Z,89.80
2018-08-16T13:27:44.739Z,89.80
2018-08-16T13:30:12.474Z,86.20
2018-08-16T13:32:40.367Z,87.10
2018-08-16T13:35:08.144Z,86.80
2018-08-16T13:37:35.971Z,87.50
2018-08-16T13:40:04.125Z,90.00
2018-08-16T13:42:33.111Z,87.70
2018-08-16T13:45:00.867Z,84.80
2018-08-16T13:47:28.983Z,81.80
2018-08-16T13:49:56.874Z,78.30
2018-08-16T13:52:24.783Z,80.70
2018-08-16T13:54:52.566Z,82.80
2018-08-16T13:57:20.557Z,83.90
2018-08-16T13:59:48.435Z,85.90
2018-08-16T14:02:16.263Z,88.10
2018-08-16T14:04:44.628Z,88.40
2018-08-16T14:07:13.639Z,86.80
2018-08-16T14:09:41.512Z,87.00
2018-08-16T14:12:10.457Z,88.90
2018-08-16T14:14:38.226Z,90.40
2018-08-16T14:17:06.356Z,90.10
2018-08-16T14:19:34.320Z,91.00
2018-08-16T14:22:02.129Z,90.10
2018-08-16T14:24:30.081Z,89.70
2018-08-16T14:26:57.855Z,88.00
2018-08-16T14:29:25.750Z,87.00
2018-08-16T14:31:53.672Z,88.40
2018-08-16T14:34:21.489Z,90.30
2018-08-16T14:36:49.355Z,90.70
2018-08-16T14:39:19.100Z,91.10
2018-08-16T14:41:47.190Z,87.00
2018-08-16T14:44:15.198Z,86.00
2018-08-16T14:46:42.953Z,85.90
2018-08-16T14:49:11.601Z,87.20
2018-08-16T14:51:41.720Z,85.20
2018-08-16T14:54:09.665Z,88.50
2018-08-16T14:56:37.773Z,91.60
2018-08-16T14:59:05.669Z,92.10
2018-08-16T15:01:33.477Z,93.20
2018-08-16T15:04:01.236Z,93.80
2018-08-16T15:06:34.600Z,94.60
2018-08-16T15:09:02.829Z,95.70
2018-08-16T15:11:32.771Z,96.30
2018-08-16T15:14:00.550Z,96.10
2018-08-16T15:16:29.642Z,94.70
2018-08-16T15:18:59.697Z,93.60
2018-08-16T15:21:27.506Z,93.60
2018-08-16T15:23:57.456Z,94.10
2018-08-16T15:26:25.349Z,94.70
2018-08-16T15:28:58.618Z,93.10
2018-08-16T15:31:26.585Z,93.00
2018-08-16T15:33:58.879Z,92.60
2018-08-16T15:36:28.011Z,92.20
2018-08-16T15:38:56.979Z,91.80
2018-08-16T15:41:24.758Z,91.10
2018-08-16T15:43:53.666Z,92.00
2018-08-16T15:46:21.440Z,92.60
2018-08-16T15:48:49.304Z,92.90
2018-08-16T15:51:17.141Z,94.00
2018-08-16T15:53:45.036Z,95.20
2018-08-16T15:56:12.906Z,95.60
2018-08-16T15:58:40.771Z,96.20
2018-08-16T16:01:08.577Z,96.60
2018-08-16T16:03:41.225Z,97.50
2018-08-16T16:06:09.293Z,97.50
2018-08-16T16:08:44.429Z,98.10
2018-08-16T16:11:12.336Z,98.60
2018-08-16T16:13:40.155Z,99.20
2018-08-16T16:16:31.647Z,98.50
2018-08-16T16:19:01.674Z,98.30
2018-08-16T16:21:29.465Z,98.60
2018-08-16T16:23:57.309Z,99.40
2018-08-16T16:26:25.097Z,99.70
2018-08-16T16:28:53.130Z,99.50
2018-08-16T16:31:21.070Z,99.60
2018-08-16T16:33:49.922Z,99.20
2018-08-16T16:36:17.857Z,98.80
2018-08-16T16:38:46.912Z,98.80
2018-08-16T16:41:14.921Z,98.50
2018-08-16T16:43:42.850Z,98.30
2018-08-16T16:46:10.859Z,98.40
2018-08-16T16:48:40.463Z,98.80
2018-08-16T16:51:16.692Z,99.30
2018-08-16T16:53:44.628Z,99.80
2018-08-16T16:56:12.648Z,99.90
2018-08-16T16:58:40.530Z,99.90
2018-08-16T17:01:08.627Z,99.90
2018-08-16T17:03:36.512Z,99.90
2018-08-16T17:06:04.504Z,99.90
2018-08-16T17:08:32.396Z,99.90
2018-08-16T17:11:00.452Z,99.90
2018-08-16T17:13:28.363Z,99.90
2018-08-16T17:15:56.310Z,99.90
2018-08-16T17:18:24.218Z,99.90
2018-08-16T17:20:52.205Z,99.90
2018-08-16T17:23:20.099Z,99.90
2018-08-16T17:25:48.151Z,99.90
2018-08-16T17:28:16.089Z,99.90
2018-08-16T17:30:44.091Z,99.90
2018-08-16T17:33:11.991Z,99.90
2018-08-16T17:35:40.051Z,99.90
2018-08-16T17:38:08.022Z,99.90
2018-08-16T17:40:35.955Z,99.90
2018-08-16T17:43:05.274Z,99.90
2018-08-16T17:45:33.408Z,99.90
2018-08-16T17:48:01.349Z,99.90
2018-08-16T17:50:29.526Z,99.90
2018-08-16T17:55:30.590Z,99.90
2018-08-16T17:57:58.564Z,99.90
2018-08-16T18:00:26.484Z,99.90
2018-08-16T18:02:55.386Z,99.90
2018-08-16T18:05:23.294Z,99.90
2018-08-16T18:07:51.367Z,99.90
2018-08-16T18:10:19.203Z,99.90
2018-08-16T18:12:47.000Z,99.90
2018-08-16T18:15:14.814Z,99.90
2018-08-16T18:17:44.615Z,99.90
2018-08-16T18:20:12.721Z,99.90
2018-08-16T18:22:40.873Z,99.90
2018-08-16T18:25:08.938Z,99.90
2018-08-16T18:27:36.793Z,99.90
2018-08-16T18:30:06.153Z,99.90
2018-08-16T18:32:33.955Z,99.90
2018-08-16T18:35:01.923Z,99.90
2018-08-16T18:37:29.684Z,99.90
2018-08-16T18:39:57.654Z,99.90
2018-08-16T18:42:25.489Z,99.90
2018-08-16T18:44:53.449Z,99.90
2018-08-16T18:47:21.218Z,99.90
2018-08-16T18:49:49.119Z,99.90
2018-08-16T18:52:16.936Z,99.90
2018-08-16T18:54:44.731Z,99.90
2018-08-16T18:57:12.719Z,99.90
2018-08-16T18:59:40.541Z,99.90
2018-08-16T19:02:08.460Z,99.90
2018-08-16T19:04:36.289Z,99.90
2018-08-16T19:10:06.696Z,99.90
2018-08-16T19:12:34.642Z,99.90
2018-08-16T19:15:02.680Z,99.90
2018-08-16T19:17:31.680Z,99.90
2018-08-16T19:20:07.369Z,99.90
2018-08-16T19:22:35.359Z,99.90
2018-08-16T19:25:03.632Z,99.90
2018-08-16T19:27:31.974Z,99.90
2018-08-16T19:29:59.755Z,99.90
2018-08-16T19:32:28.703Z,99.90
2018-08-16T19:34:56.443Z,99.90
2018-08-16T19:37:24.478Z,99.90
2018-08-16T19:39:57.818Z,99.90
2018-08-16T19:42:34.846Z,99.90
2018-08-16T19:45:02.811Z,99.90
2018-08-16T19:47:30.620Z,99.90
2018-08-16T19:49:58.405Z,99.90
2018-08-16T19:52:26.175Z,99.90
2018-08-16T19:54:53.934Z,99.90
2018-08-16T19:57:21.723Z,99.90
2018-08-16T19:59:49.569Z,99.90
2018-08-16T20:02:17.347Z,99.90
2018-08-16T20:04:45.108Z,99.90
2018-08-16T20:07:12.921Z,99.90
2018-08-16T20:09:40.810Z,99.90
2018-08-16T20:12:08.750Z,99.90
2018-08-16T20:39:13.537Z,99.90
2018-08-16T20:41:42.067Z,99.90
2018-08-16T20:44:10.210Z,99.90
2018-08-16T20:46:38.009Z,99.90
2018-08-16T20:49:05.813Z,99.90
2018-08-16T20:51:33.633Z,99.90
2018-08-16T20:54:01.411Z,99.90
2018-08-16T20:56:29.222Z,99.90
2018-08-16T20:58:57.052Z,99.90
2018-08-16T21:01:24.767Z,99.90
2018-08-16T21:03:52.571Z,99.90
2018-08-16T21:06:20.350Z,99.90
2018-08-16T21:08:48.168Z,99.90
2018-08-16T21:11:15.949Z,99.90
2018-08-16T21:13:43.733Z,99.90
2018-08-16T21:16:11.560Z,99.90
2018-08-16T21:18:39.361Z,99.90
2018-08-16T21:21:07.202Z,99.90
2018-08-16T21:23:35.150Z,99.90
2018-08-16T21:26:03.442Z,99.90
2018-08-16T21:28:31.505Z,99.90
2018-08-16T21:30:59.436Z,99.90
2018-08-16T21:33:27.408Z,99.90
2018-08-16T21:35:55.357Z,99.90
2018-08-16T21:38:23.286Z,99.90
2018-08-16T21:40:51.167Z,99.90
2018-08-16T21:43:19.101Z,99.90
2018-08-16T21:45:47.030Z,99.90
2018-08-16T21:48:14.886Z,99.90
2018-08-16T21:50:42.783Z,99.90
2018-08-16T21:53:10.684Z,99.90
2018-08-16T21:55:38.561Z,99.90
2018-08-16T21:58:06.470Z,99.90
2018-08-16T22:00:49.524Z,99.90
2018-08-16T22:03:18.875Z,99.90
2018-08-16T22:05:57.587Z,99.90
2018-08-16T22:08:28.415Z,99.90
2018-08-16T22:10:56.374Z,99.90
2018-08-16T22:13:24.275Z,99.90
2018-08-16T22:15:52.155Z,99.90
2018-08-16T22:18:20.027Z,99.90
2018-08-16T22:20:47.904Z,99.90
2018-08-16T22:23:15.875Z,99.90
2018-08-16T22:28:23.801Z,99.90
2018-08-16T22:30:51.632Z,99.90
2018-08-16T22:33:19.388Z,99.90
2018-08-16T22:35:47.195Z,99.90
2018-08-16T22:38:15.016Z,99.90
2018-08-16T22:40:42.827Z,99.90
2018-08-16T22:43:10.570Z,99.90
2018-08-16T22:45:38.406Z,99.90
2018-08-16T22:48:06.225Z,99.90
2018-08-16T22:50:34.087Z,99.90
2018-08-16T22:53:01.861Z,99.90
2018-08-16T22:55:29.619Z,99.90
2018-08-16T22:57:57.355Z,99.90
2018-08-16T23:00:25.140Z,99.90
2018-08-16T23:02:52.959Z,99.90
2018-08-16T23:05:20.699Z,99.90
2018-08-16T23:07:48.490Z,99.90
2018-08-16T23:10:16.254Z,99.90
2018-08-16T23:12:44.028Z,99.90
2018-08-16T23:15:11.812Z,99.90
2018-08-16T23:17:39.561Z,99.90
2018-08-16T23:20:08.136Z,99.90
2018-08-16T23:22:35.948Z,99.90
2018-08-16T23:25:04.133Z,99.90
2018-08-16T23:27:31.918Z,99.90
2018-08-16T23:29:59.691Z,99.90
2018-08-16T23:32:27.430Z,99.90
2018-08-16T23:34:55.358Z,99.90
2018-08-16T23:37:34.492Z,99.90
2018-08-16T23:40:03.103Z,99.90
2018-08-16T23:42:31.595Z,99.90
2018-08-16T23:44:59.905Z,99.90
2018-08-16T23:47:28.264Z,99.90
2018-08-16T23:49:56.633Z,99.90
2018-08-16T23:52:25.025Z,99.90
2018-08-16T23:54:53.397Z,99.90
2018-08-16T23:57:24.162Z,99.90
2018-08-16T23:59:52.593Z,99.90
